Time,TemperatureF,DewpointF,PressureIn,WindDirection,WindDirectionDegrees,WindSpeedMPH,WindSpeedGustMPH,Humidity,HourlyPrecipIn,Conditions,Clouds,dailyrainin,SolarRadiationWatts/m^2,SoftwareType,DateUTC
2013-05-22 00:00:00,69.4,62.2,29.82,WNW,290,0.0,0.0,78,0.00,,---,0.00,0.00,VWS V14.00,2013-05-22 04:00:00,
2013-05-22 00:01:00,69.4,62.6,29.82,WNW,290,0.0,0.0,79,0.00,,---,0.00,0.00,VWS V14.00,2013-05-22 04:01:00,
2013-05-22 00:03:00,69.2,62.4,29.81,WNW,290,0.0,1.0,79,0.00,,---,0.00,0.00,VWS V14.00,2013-05-22 04:03:00,
2013-05-22 00:08:00,68.8,62.4,29.82,WNW,290,0.0,1.0,80,0.00,,---,0.00,0.00,VWS V14.00,2013-05-22 04:08:00,
2013-05-22 00:13:00,68.1,62.4,29.82,WNW,290,0.0,1.0,82,0.00,,---,0.00,0.00,VWS V14.00,2013-05-22 04:13:00,
2013-05-22 00:18:00,67.6,62.3,29.83,WNW,290,0.0,1.0,83,0.00,,---,0.00,0.00,VWS V14.00,2013-05-22 04:18:00,
2013-05-22 00:23:00,67.2,61.9,29.83,WNW,290,0.0,1.0,83,0.00,,---,0.00,0.00,VWS V14.00,2013-05-22 04:23:00,
2013-05-22 00:28:00,67.1,62.1,29.83,WNW,290,0.0,1.0,84,0.00,,---,0.00,0.00,VWS V14.00,2013-05-22 04:28:00,
2013-05-22 00:30:00,71.2,62.5,29.83,WNW,290,0.0,1.0,74,0.00,,---,0.00,0.00,VWS V14.00,2013-05-22 04:30:00,
2013-05-22 00:33:00,67.0,62.3,29.82,WNW,290,0.0,0.0,85,0.00,,---,0.00,0.00,VWS V14.00,2013-05-22 04:33:00,
2013-05-22 00:38:00,66.9,62.2,29.83,WNW,290,0.0,0.0,85,0.00,,---,0.00,0.00,VWS V14.00,2013-05-22 04:38:00,
2013-05-22 00:43:00,66.9,62.2,29.83,WNW,290,0.0,0.0,85,0.00,,---,0.00,0.00,VWS V14.00,2013-05-22 04:43:00,
2013-05-22 00:48:00,66.9,62.2,29.83,WNW,290,0.0,1.0,85,0.00,,---,0.00,0.00,VWS V14.00,2013-05-22 04:48:00,
2013-05-22 00:53:00,67.0,62.7,29.83,WNW,289,0.0,1.0,86,0.00,,---,0.00,0.00,VWS V14.00,2013-05-22 04:53:00,
2013-05-22 00:58:00,68.0,63.3,29.83,WSW,256,0.0,7.0,85,0.00,,---,0.00,0.00,VWS V14.00,2013-05-22 04:58:00,
2013-05-22 01:00:00,69.4,62.6,29.82,WNW,290,0.0,0.0,79,0.00,,---,0.00,0.00,VWS V14.00,2013-05-22 05:00:00,
2013-05-22 01:03:00,69.3,63.6,29.83,ESE,107,0.0,6.0,82,0.00,,---,0.00,0.00,VWS V14.00,2013-05-22 05:03:00,
2013-05-22 01:08:00,70.3,63.5,29.82,South,175,0.0,6.0,79,0.00,,---,0.00,0.00,VWS V14.00,2013-05-22 05:08:00,
2013-05-22 01:13:00,70.8,63.6,29.82,South,176,0.0,6.0,78,0.00,,---,0.00,0.00,VWS V14.00,2013-05-22 05:13:00,
2013-05-22 01:18:00,71.2,63.6,29.82,WSW,250,2.0,10.0,77,0.00,,---,0.00,0.00,VWS V14.00,2013-05-22 05:18:00,
2013-05-22 01:23:00,71.7,63.4,29.82,West,268,6.0,10.0,75,0.00,,---,0.00,0.00,VWS V14.00,2013-05-22 05:23:00,
2013-05-22 01:28:00,72.1,63.8,29.82,SW,236,0.0,10.0,75,0.00,,---,0.00,0.00,VWS V14.00,2013-05-22 05:28:00,
2013-05-22 01:30:00,67.0,62.0,29.83,WNW,290,0.0,1.0,84,0.00,,---,0.00,0.00,VWS V14.00,2013-05-22 05:30:00,
2013-05-22 01:33:00,72.2,63.8,29.81,SSE,154,0.0,0.0,75,0.00,,---,0.00,0.00,VWS V14.00,2013-05-22 05:33:00,
2013-05-22 01:38:00,72.3,63.9,29.81,South,173,2.0,5.0,75,0.00,,---,0.00,0.00,VWS V14.00,2013-05-22 05:38:00,
2013-05-22 01:43:00,72.3,63.9,29.81,ESE,123,0.0,5.0,75,0.00,,---,0.00,0.00,VWS V14.00,2013-05-22 05:43:00,
2013-05-22 01:48:00,72.3,63.2,29.80,WNW,286,0.0,5.0,73,0.00,,---,0.00,0.00,VWS V14.00,2013-05-22 05:48:00,
2013-05-22 01:53:00,72.3,63.2,29.81,SSE,148,0.0,10.0,73,0.00,,---,0.00,0.00,VWS V14.00,2013-05-22 05:53:00,
2013-05-22 01:58:00,72.4,63.3,29.80,SSE,150,0.0,10.0,73,0.00,,---,0.00,0.00,VWS V14.00,2013-05-22 05:58:00,
2013-05-22 02:00:00,68.6,63.2,29.82,West,259,2.0,7.0,83,0.00,,---,0.00,0.00,VWS V14.00,2013-05-22 06:00:00,
2013-05-22 02:03:00,72.4,63.3,29.80,ENE,74,0.0,2.0,73,0.00,,---,0.00,0.00,VWS V14.00,2013-05-22 06:03:00,
2013-05-22 02:08:00,72.3,62.8,29.80,SE,129,0.0,10.0,72,0.00,,---,0.00,0.00,VWS V14.00,2013-05-22 06:08:00,
2013-05-22 02:13:00,72.2,62.3,29.80,SW,230,0.0,10.0,71,0.00,,---,0.00,0.00,VWS V14.00,2013-05-22 06:13:00,
2013-05-22 02:18:00,72.1,62.6,29.80,South,191,1.0,10.0,72,0.00,,---,0.00,0.00,VWS V14.00,2013-05-22 06:18:00,
2013-05-22 02:23:00,72.0,62.1,29.80,SSE,158,1.0,10.0,71,0.00,,---,0.00,0.00,VWS V14.00,2013-05-22 06:23:00,
2013-05-22 02:28:00,71.9,62.4,29.79,SSE,162,0.0,10.0,72,0.00,,---,0.00,0.00,VWS V14.00,2013-05-22 06:28:00,
2013-05-22 02:30:00,72.2,63.8,29.82,SSE,154,0.0,10.0,75,0.00,,---,0.00,0.00,VWS V14.00,2013-05-22 06:30:00,
2013-05-22 02:33:00,71.7,62.2,29.79,SSE,154,0.0,4.0,72,0.00,,---,0.00,0.00,VWS V14.00,2013-05-22 06:33:00,
2013-05-22 02:38:00,71.6,62.1,29.79,SSE,155,0.0,5.0,72,0.00,,---,0.00,0.00,VWS V14.00,2013-05-22 06:38:00,
2013-05-22 02:43:00,71.5,62.0,29.79,South,186,1.0,5.0,72,0.00,,---,0.00,0.00,VWS V14.00,2013-05-22 06:43:00,
2013-05-22 02:48:00,71.3,62.2,29.80,WSW,242,0.0,5.0,73,0.00,,---,0.00,0.00,VWS V14.00,2013-05-22 06:48:00,
2013-05-22 02:53:00,71.1,62.0,29.80,SW,232,0.0,5.0,73,0.00,,---,0.00,0.00,VWS V14.00,2013-05-22 06:53:00,
2013-05-22 02:58:00,70.8,62.1,29.80,WNW,301,1.0,7.0,74,0.00,,---,0.00,0.00,VWS V14.00,2013-05-22 06:58:00,
2013-05-22 03:00:00,72.4,62.9,29.80,SSE,153,4.0,10.0,72,0.00,,---,0.00,0.00,VWS V14.00,2013-05-22 07:00:00,
2013-05-22 03:03:00,70.5,62.2,29.80,SW,234,0.0,4.0,75,0.00,,---,0.00,0.00,VWS V14.00,2013-05-22 07:03:00,
2013-05-22 03:08:00,70.3,62.0,29.80,West,261,5.0,8.0,75,0.00,,---,0.00,0.00,VWS V14.00,2013-05-22 07:08:00,
2013-05-22 03:13:00,70.2,61.9,29.80,WSW,249,4.0,8.0,75,0.00,,---,0.00,0.00,VWS V14.00,2013-05-22 07:13:00,
2013-05-22 03:18:00,70.1,62.2,29.80,West,261,0.0,8.0,76,0.00,,---,0.00,0.00,VWS V14.00,2013-05-22 07:18:00,
2013-05-22 03:23:00,70.0,62.1,29.80,West,262,0.0,8.0,76,0.00,,---,0.00,0.00,VWS V14.00,2013-05-22 07:23:00,
2013-05-22 03:28:00,69.9,62.4,29.80,WSW,252,0.0,8.0,77,0.00,,---,0.00,0.00,VWS V14.00,2013-05-22 07:28:00,
2013-05-22 03:30:00,71.8,62.3,29.79,SSE,160,0.0,10.0,72,0.00,,---,0.00,0.00,VWS V14.00,2013-05-22 07:30:00,
2013-05-22 03:33:00,69.8,62.3,29.80,West,263,4.0,4.0,77,0.00,,---,0.00,0.00,VWS V14.00,2013-05-22 07:33:00,
2013-05-22 03:38:00,69.7,62.2,29.79,West,259,0.0,6.0,77,0.00,,---,0.00,0.00,VWS V14.00,2013-05-22 07:38:00,
2013-05-22 03:43:00,69.4,62.2,29.79,West,261,2.0,6.0,78,0.00,,---,0.00,0.00,VWS V14.00,2013-05-22 07:43:00,
2013-05-22 03:48:00,69.3,62.2,29.80,West,263,2.0,6.0,78,0.00,,---,0.00,0.00,VWS V14.00,2013-05-22 07:48:00,
2013-05-22 03:53:00,69.2,62.4,29.79,WSW,258,2.0,6.0,79,0.00,,---,0.00,0.00,VWS V14.00,2013-05-22 07:53:00,
2013-05-22 03:58:00,69.1,62.3,29.79,WSW,257,0.0,6.0,79,0.00,,---,0.00,0.00,VWS V14.00,2013-05-22 07:58:00,
2013-05-22 04:00:00,70.7,62.0,29.80,SW,227,0.0,7.0,74,0.00,,---,0.00,0.00,VWS V14.00,2013-05-22 08:00:00,
2013-05-22 04:03:00,69.0,62.2,29.80,WSW,257,1.0,3.0,79,0.00,,---,0.00,0.00,VWS V14.00,2013-05-22 08:03:00,
2013-05-22 04:08:00,68.8,62.4,29.80,SSE,166,0.0,4.0,80,0.00,,---,0.00,0.00,VWS V14.00,2013-05-22 08:08:00,
2013-05-22 04:13:00,68.7,62.3,29.80,WSW,258,0.0,4.0,80,0.00,,---,0.00,0.00,VWS V14.00,2013-05-22 08:13:00,
2013-05-22 04:18:00,68.7,62.3,29.80,WSW,250,2.0,6.0,80,0.00,,---,0.00,0.00,VWS V14.00,2013-05-22 08:18:00,
2013-05-22 04:23:00,68.8,62.4,29.81,West,261,0.0,7.0,80,0.00,,---,0.00,0.00,VWS V14.00,2013-05-22 08:23:00,
2013-05-22 04:28:00,68.7,62.3,29.81,West,263,2.0,7.0,80,0.00,,---,0.00,0.00,VWS V14.00,2013-05-22 08:28:00,
2013-05-22 04:30:00,69.8,61.9,29.80,West,262,0.0,8.0,76,0.00,,---,0.00,0.00,VWS V14.00,2013-05-22 08:30:00,
2013-05-22 04:33:00,68.7,62.3,29.81,WSW,245,0.0,4.0,80,0.00,,---,0.00,0.00,VWS V14.00,2013-05-22 08:33:00,
2013-05-22 04:38:00,68.7,62.3,29.81,WSW,252,0.0,4.0,80,0.00,,---,0.00,0.00,VWS V14.00,2013-05-22 08:38:00,
2013-05-22 04:43:00,68.7,62.3,29.82,West,269,0.0,4.0,80,0.00,,---,0.00,0.00,VWS V14.00,2013-05-22 08:43:00,
2013-05-22 04:48:00,68.6,62.2,29.81,West,269,0.0,4.0,80,0.00,,---,0.00,0.00,VWS V14.00,2013-05-22 08:48:00,
2013-05-22 04:53:00,68.6,62.2,29.81,West,268,0.0,4.0,80,0.00,,---,0.00,0.00,VWS V14.00,2013-05-22 08:53:00,
2013-05-22 04:58:00,68.5,62.1,29.81,West,268,0.0,4.0,80,0.00,,---,0.00,0.00,VWS V14.00,2013-05-22 08:58:00,
2013-05-22 05:00:00,69.0,62.2,29.80,WSW,257,0.0,6.0,79,0.00,,---,0.00,0.00,VWS V14.00,2013-05-22 09:00:00,
2013-05-22 05:03:00,68.4,62.0,29.81,West,267,0.0,5.0,80,0.00,,---,0.00,0.00,VWS V14.00,2013-05-22 09:03:00,
2013-05-22 05:08:00,68.2,61.8,29.81,West,265,0.0,5.0,80,0.00,,---,0.00,0.00,VWS V14.00,2013-05-22 09:08:00,
2013-05-22 05:13:00,68.0,62.0,29.81,West,265,0.0,5.0,81,0.00,,---,0.00,0.00,VWS V14.00,2013-05-22 09:13:00,
2013-05-22 05:19:00,67.8,61.8,29.81,West,265,0.0,5.0,81,0.00,,---,0.00,0.00,VWS V14.00,2013-05-22 09:19:00,
2013-05-22 05:24:00,67.6,61.6,29.81,West,265,0.0,5.0,81,0.00,,---,0.00,0.00,VWS V14.00,2013-05-22 09:24:00,
2013-05-22 05:29:00,67.4,61.7,29.81,West,264,0.0,5.0,82,0.00,,---,0.00,0.00,VWS V14.00,2013-05-22 09:29:00,
2013-05-22 05:30:00,68.7,62.3,29.81,West,261,3.0,7.0,80,0.00,,---,0.00,0.00,VWS V14.00,2013-05-22 09:30:00,
2013-05-22 05:33:00,67.1,61.4,29.81,West,264,0.0,0.0,82,0.00,,---,0.00,0.00,VWS V14.00,2013-05-22 09:33:00,
2013-05-22 05:38:00,66.9,61.2,29.81,West,263,0.0,0.0,82,0.00,,---,0.00,0.00,VWS V14.00,2013-05-22 09:38:00,
2013-05-22 05:43:00,66.7,61.4,29.81,West,263,0.0,0.0,83,0.00,,---,0.00,0.00,VWS V14.00,2013-05-22 09:43:00,
2013-05-22 05:48:00,66.5,61.2,29.81,West,263,0.0,0.0,83,0.00,,---,0.00,0.00,VWS V14.00,2013-05-22 09:48:00,
2013-05-22 05:53:00,66.2,61.2,29.81,West,263,0.0,0.0,84,0.00,,---,0.00,0.00,VWS V14.00,2013-05-22 09:53:00,
2013-05-22 05:58:00,66.0,61.0,29.81,West,263,0.0,0.0,84,0.00,,---,0.00,0.00,VWS V14.00,2013-05-22 09:58:00,
2013-05-22 06:00:00,68.4,62.0,29.81,West,267,0.0,4.0,80,0.00,,---,0.00,0.00,VWS V14.00,2013-05-22 10:00:00,
2013-05-22 06:04:00,65.8,60.8,29.81,West,263,0.0,0.0,84,0.00,,---,0.00,5.00,VWS V14.00,2013-05-22 10:04:00,
2013-05-22 06:09:00,65.6,61.0,29.82,West,263,0.0,2.0,85,0.00,,---,0.00,9.00,VWS V14.00,2013-05-22 10:09:00,
2013-05-22 06:14:00,65.5,60.9,29.82,West,263,0.0,2.0,85,0.00,,---,0.00,11.00,VWS V14.00,2013-05-22 10:14:00,
2013-05-22 06:19:00,65.6,61.0,29.82,West,262,0.0,2.0,85,0.00,,---,0.00,12.00,VWS V14.00,2013-05-22 10:19:00,
2013-05-22 06:24:00,65.5,60.9,29.82,West,262,0.0,2.0,85,0.00,,---,0.00,16.00,VWS V14.00,2013-05-22 10:24:00,
2013-05-22 06:29:00,65.3,60.7,29.83,West,262,0.0,2.0,85,0.00,,---,0.00,21.00,VWS V14.00,2013-05-22 10:29:00,
2013-05-22 06:30:00,67.3,61.6,29.81,West,264,0.0,5.0,82,0.00,,---,0.00,0.00,VWS V14.00,2013-05-22 10:30:00,
2013-05-22 06:34:00,65.2,60.9,29.83,West,262,0.0,0.0,86,0.00,,---,0.00,25.00,VWS V14.00,2013-05-22 10:34:00,
2013-05-22 06:39:00,65.1,61.1,29.82,West,262,0.0,0.0,87,0.00,,---,0.00,25.00,VWS V14.00,2013-05-22 10:39:00,
2013-05-22 06:44:00,64.9,61.3,29.82,West,262,0.0,0.0,88,0.00,,---,0.00,28.00,VWS V14.00,2013-05-22 10:44:00,
2013-05-22 06:49:00,64.8,61.2,29.83,West,262,0.0,0.0,88,0.00,,---,0.00,32.00,VWS V14.00,2013-05-22 10:49:00,
2013-05-22 06:54:00,64.7,60.8,29.82,West,262,0.0,0.0,87,0.00,,---,0.00,33.00,VWS V14.00,2013-05-22 10:54:00,
2013-05-22 06:59:00,64.8,60.8,29.83,West,262,0.0,0.0,87,0.00,,---,0.00,37.00,VWS V14.00,2013-05-22 10:59:00,
2013-05-22 07:00:00,65.9,60.9,29.81,West,263,0.0,0.0,84,0.00,,---,0.00,0.00,VWS V14.00,2013-05-22 11:00:00,
2013-05-22 07:04:00,64.9,60.9,29.83,West,262,0.0,0.0,87,0.00,,---,0.00,40.00,VWS V14.00,2013-05-22 11:04:00,
2013-05-22 07:09:00,65.0,61.4,29.83,West,262,0.0,0.0,88,0.00,,---,0.00,42.00,VWS V14.00,2013-05-22 11:09:00,
2013-05-22 07:14:00,65.3,61.3,29.83,West,262,0.0,1.0,87,0.00,,---,0.00,46.00,VWS V14.00,2013-05-22 11:14:00,
2013-05-22 07:19:00,65.7,61.7,29.83,West,262,0.0,2.0,87,0.00,,---,0.00,49.00,VWS V14.00,2013-05-22 11:19:00,
2013-05-22 07:24:00,66.1,61.8,29.83,West,262,0.0,2.0,86,0.00,,---,0.00,53.00,VWS V14.00,2013-05-22 11:24:00,
2013-05-22 07:29:00,66.5,62.2,29.84,SSE,165,0.0,3.0,86,0.00,,---,0.00,79.00,VWS V14.00,2013-05-22 11:29:00,
2013-05-22 07:30:00,65.3,61.0,29.83,West,262,0.0,2.0,86,0.00,,---,0.00,23.00,VWS V14.00,2013-05-22 11:30:00,
2013-05-22 07:34:00,66.8,62.2,29.84,South,182,1.0,7.0,85,0.00,,---,0.00,105.00,VWS V14.00,2013-05-22 11:34:00,
2013-05-22 07:39:00,67.3,62.3,29.84,South,184,2.0,7.0,84,0.00,,---,0.00,76.00,VWS V14.00,2013-05-22 11:39:00,
2013-05-22 07:44:00,67.6,62.6,29.84,South,184,0.0,7.0,84,0.00,,---,0.00,63.00,VWS V14.00,2013-05-22 11:44:00,
2013-05-22 07:49:00,67.8,62.5,29.84,South,184,0.0,7.0,83,0.00,,---,0.00,67.00,VWS V14.00,2013-05-22 11:49:00,
2013-05-22 07:54:00,68.0,62.7,29.84,South,183,0.0,7.0,83,0.00,,---,0.00,77.00,VWS V14.00,2013-05-22 11:54:00,
2013-05-22 07:59:00,68.2,62.8,29.84,South,183,0.0,7.0,83,0.00,,---,0.00,90.00,VWS V14.00,2013-05-22 11:59:00,
2013-05-22 08:00:00,64.8,60.8,29.83,West,262,0.0,0.0,87,0.00,,---,0.00,39.00,VWS V14.00,2013-05-22 12:00:00,
2013-05-22 08:04:00,68.5,63.1,29.84,ESE,117,0.0,4.0,83,0.00,,---,0.00,91.00,VWS V14.00,2013-05-22 12:04:00,
2013-05-22 08:09:00,68.9,63.9,29.84,SE,134,1.0,4.0,84,0.00,,---,0.00,135.00,VWS V14.00,2013-05-22 12:09:00,
2013-05-22 08:14:00,69.4,63.7,29.84,West,270,2.0,4.0,82,0.00,,---,0.00,359.00,VWS V14.00,2013-05-22 12:14:00,
2013-05-22 08:19:00,70.1,64.0,29.85,WSW,240,0.0,5.0,81,0.00,,---,0.00,225.00,VWS V14.00,2013-05-22 12:19:00,
2013-05-22 08:24:00,70.4,63.9,29.85,SW,217,0.0,5.0,80,0.00,,---,0.00,223.00,VWS V14.00,2013-05-22 12:24:00,
2013-05-22 08:29:00,70.8,64.3,29.84,SE,142,0.0,5.0,80,0.00,,---,0.00,373.00,VWS V14.00,2013-05-22 12:29:00,
2013-05-22 08:30:00,66.6,62.0,29.84,South,178,0.0,3.0,85,0.00,,---,0.00,97.00,VWS V14.00,2013-05-22 12:30:00,
2013-05-22 08:34:00,71.4,64.2,29.84,South,178,0.0,1.0,78,0.00,,---,0.00,401.00,VWS V14.00,2013-05-22 12:34:00,
2013-05-22 08:39:00,72.1,64.5,29.84,SSE,163,0.0,4.0,77,0.00,,---,0.00,385.00,VWS V14.00,2013-05-22 12:39:00,
2013-05-22 08:44:00,72.8,64.4,29.84,South,189,1.0,5.0,75,0.00,,---,0.00,408.00,VWS V14.00,2013-05-22 12:44:00,
2013-05-22 08:49:00,73.4,65.0,29.84,SSE,162,2.0,5.0,75,0.00,,---,0.00,431.00,VWS V14.00,2013-05-22 12:49:00,
2013-05-22 08:54:00,73.8,65.0,29.84,SSE,167,0.0,6.0,74,0.00,,---,0.00,415.00,VWS V14.00,2013-05-22 12:54:00,
2013-05-22 08:59:00,74.2,64.2,29.84,SW,223,1.0,6.0,71,0.00,,---,0.00,446.00,VWS V14.00,2013-05-22 12:59:00,
2013-05-22 09:00:00,68.3,63.3,29.84,SSE,159,0.0,7.0,84,0.00,,---,0.00,95.00,VWS V14.00,2013-05-22 13:00:00,
2013-05-22 09:04:00,74.5,64.5,29.84,SW,235,2.0,6.0,71,0.00,,---,0.00,455.00,VWS V14.00,2013-05-22 13:04:00,
2013-05-22 09:09:00,74.9,64.5,29.84,ENE,78,1.0,6.0,70,0.00,,---,0.00,466.00,VWS V14.00,2013-05-22 13:09:00,
2013-05-22 09:14:00,75.3,64.8,29.84,WSW,242,2.0,6.0,70,0.00,,---,0.00,482.00,VWS V14.00,2013-05-22 13:14:00,
2013-05-22 09:19:00,75.5,64.6,29.84,SSW,197,0.0,6.0,69,0.00,,---,0.00,497.00,VWS V14.00,2013-05-22 13:19:00,
2013-05-22 09:24:00,75.7,64.8,29.84,WSW,255,1.0,6.0,69,0.00,,---,0.00,519.00,VWS V14.00,2013-05-22 13:24:00,
2013-05-22 09:29:00,75.9,64.6,29.84,SSE,167,0.0,9.0,68,0.00,,---,0.00,519.00,VWS V14.00,2013-05-22 13:29:00,
2013-05-22 09:30:00,71.0,64.5,29.84,SE,142,0.0,5.0,80,0.00,,---,0.00,385.00,VWS V14.00,2013-05-22 13:30:00,
2013-05-22 09:34:00,76.0,65.9,29.83,West,262,2.0,6.0,71,0.00,,---,0.00,550.00,VWS V14.00,2013-05-22 13:34:00,
2013-05-22 09:39:00,76.3,65.4,29.83,South,176,2.0,8.0,69,0.00,,---,0.00,564.00,VWS V14.00,2013-05-22 13:39:00,
2013-05-22 09:44:00,76.6,64.8,29.83,West,271,4.0,8.0,67,0.00,,---,0.00,587.00,VWS V14.00,2013-05-22 13:44:00,
2013-05-22 09:49:00,76.7,64.5,29.83,SSE,165,1.0,8.0,66,0.00,,---,0.00,605.00,VWS V14.00,2013-05-22 13:49:00,
2013-05-22 09:54:00,76.8,64.2,29.83,WSW,246,0.0,8.0,65,0.00,,---,0.00,617.00,VWS V14.00,2013-05-22 13:54:00,
2013-05-22 09:59:00,77.1,64.9,29.82,West,277,2.0,8.0,66,0.00,,---,0.00,635.00,VWS V14.00,2013-05-22 13:59:00,
2013-05-22 10:00:00,74.3,64.7,29.84,South,178,0.0,6.0,72,0.00,,---,0.00,452.00,VWS V14.00,2013-05-22 14:00:00,
2013-05-22 10:04:00,77.4,66.0,29.82,WSW,247,2.0,3.0,68,0.00,,---,0.00,650.00,VWS V14.00,2013-05-22 14:04:00,
2013-05-22 10:09:00,77.7,65.9,29.83,South,184,0.0,6.0,67,0.00,,---,0.00,668.00,VWS V14.00,2013-05-22 14:09:00,
2013-05-22 10:14:00,78.2,65.9,29.83,West,271,4.0,12.0,66,0.00,,---,0.00,675.00,VWS V14.00,2013-05-22 14:14:00,
2013-05-22 10:19:00,78.3,65.6,29.83,WSW,249,1.0,12.0,65,0.00,,---,0.00,686.00,VWS V14.00,2013-05-22 14:19:00,
2013-05-22 10:24:00,78.4,64.3,29.82,South,169,1.0,12.0,62,0.00,,---,0.00,698.00,VWS V14.00,2013-05-22 14:24:00,
2013-05-22 10:29:00,78.7,65.5,29.82,SSW,193,2.0,12.0,64,0.00,,---,0.00,714.00,VWS V14.00,2013-05-22 14:29:00,
2013-05-22 10:30:00,76.0,65.5,29.84,WSW,258,2.0,9.0,70,0.00,,---,0.00,538.00,VWS V14.00,2013-05-22 14:30:00,
2013-05-22 10:34:00,79.2,66.9,29.82,SW,219,0.0,4.0,66,0.00,,---,0.00,728.00,VWS V14.00,2013-05-22 14:34:00,
2013-05-22 10:39:00,79.6,66.4,29.82,WSW,250,1.0,7.0,64,0.00,,---,0.00,745.00,VWS V14.00,2013-05-22 14:39:00,
2013-05-22 10:44:00,79.6,66.8,29.82,SW,233,4.0,8.0,65,0.00,,---,0.00,756.00,VWS V14.00,2013-05-22 14:44:00,
2013-05-22 10:49:00,79.7,66.5,29.82,WSW,238,1.0,8.0,64,0.00,,---,0.00,768.00,VWS V14.00,2013-05-22 14:49:00,
2013-05-22 10:54:00,80.3,67.5,29.82,SW,218,3.0,8.0,65,0.00,,---,0.00,740.00,VWS V14.00,2013-05-22 14:54:00,
2013-05-22 10:59:00,80.8,68.4,29.82,SW,221,0.0,8.0,66,0.00,,---,0.00,772.00,VWS V14.00,2013-05-22 14:59:00,
2013-05-22 11:00:00,77.2,65.4,29.82,SW,222,0.0,8.0,67,0.00,,---,0.00,638.00,VWS V14.00,2013-05-22 15:00:00,
2013-05-22 11:04:00,81.1,67.3,29.82,SSE,159,5.0,6.0,63,0.00,,---,0.00,782.00,VWS V14.00,2013-05-22 15:04:00,
2013-05-22 11:09:00,81.1,67.8,29.82,WSW,251,3.0,7.0,64,0.00,,---,0.00,712.00,VWS V14.00,2013-05-22 15:09:00,
2013-05-22 11:14:00,80.9,67.1,29.82,WSW,248,5.0,11.0,63,0.00,,---,0.00,821.00,VWS V14.00,2013-05-22 15:14:00,
2013-05-22 11:19:00,80.7,67.8,29.82,WSW,252,2.0,11.0,65,0.00,,---,0.00,833.00,VWS V14.00,2013-05-22 15:19:00,
2013-05-22 11:24:00,80.8,68.4,29.82,WNW,283,2.0,11.0,66,0.00,,---,0.00,872.00,VWS V14.00,2013-05-22 15:24:00,
2013-05-22 11:29:00,81.0,69.0,29.82,WSW,240,2.0,11.0,67,0.00,,---,0.00,814.00,VWS V14.00,2013-05-22 15:29:00,
2013-05-22 11:30:00,78.9,65.7,29.82,SW,217,0.0,12.0,64,0.00,,---,0.00,717.00,VWS V14.00,2013-05-22 15:30:00,
2013-05-22 11:34:00,81.4,69.4,29.82,West,275,1.0,6.0,67,0.00,,---,0.00,766.00,VWS V14.00,2013-05-22 15:34:00,
2013-05-22 11:39:00,81.7,68.3,29.82,SSW,196,1.0,7.0,64,0.00,,---,0.00,835.00,VWS V14.00,2013-05-22 15:39:00,
2013-05-22 11:44:00,82.0,68.2,29.82,SE,134,0.0,7.0,63,0.00,,---,0.00,844.00,VWS V14.00,2013-05-22 15:44:00,
2013-05-22 11:49:00,82.2,68.4,29.81,South,182,1.0,11.0,63,0.00,,---,0.00,863.00,VWS V14.00,2013-05-22 15:49:00,
2013-05-22 11:54:00,82.3,68.0,29.81,South,182,2.0,11.0,62,0.00,,---,0.00,867.00,VWS V14.00,2013-05-22 15:54:00,
2013-05-22 11:59:00,82.3,67.5,29.82,West,265,8.0,11.0,61,0.00,,---,0.00,232.00,VWS V14.00,2013-05-22 15:59:00,
2013-05-22 12:00:00,80.9,68.5,29.82,WSW,238,6.0,8.0,66,0.00,,---,0.00,761.00,VWS V14.00,2013-05-22 16:00:00,
2013-05-22 12:04:00,81.9,68.5,29.81,West,271,4.0,12.0,64,0.00,,---,0.00,904.00,VWS V14.00,2013-05-22 16:04:00,
2013-05-22 12:09:00,82.0,69.1,29.81,SE,144,5.0,12.0,65,0.00,,---,0.00,981.00,VWS V14.00,2013-05-22 16:09:00,
2013-05-22 12:14:00,82.0,68.6,29.80,SE,134,1.0,12.0,64,0.00,,---,0.00,1000.00,VWS V14.00,2013-05-22 16:14:00,
2013-05-22 12:19:00,82.2,68.4,29.80,ENE,71,3.0,12.0,63,0.00,,---,0.00,837.00,VWS V14.00,2013-05-22 16:19:00,
2013-05-22 12:24:00,82.3,68.5,29.80,SW,228,4.0,12.0,63,0.00,,---,0.00,886.00,VWS V14.00,2013-05-22 16:24:00,
2013-05-22 12:29:00,82.5,69.6,29.80,WSW,253,7.0,12.0,65,0.00,,---,0.00,925.00,VWS V14.00,2013-05-22 16:29:00,
2013-05-22 12:30:00,81.1,69.1,29.82,WSW,244,0.0,11.0,67,0.00,,---,0.00,819.00,VWS V14.00,2013-05-22 16:30:00,
2013-05-22 12:34:00,82.7,69.3,29.80,SW,223,0.0,6.0,64,0.00,,---,0.00,928.00,VWS V14.00,2013-05-22 16:34:00,
2013-05-22 12:39:00,83.2,69.3,29.80,SSE,165,4.0,6.0,63,0.00,,---,0.00,937.00,VWS V14.00,2013-05-22 16:39:00,
2013-05-22 12:44:00,83.2,68.4,29.80,WSW,239,0.0,11.0,61,0.00,,---,0.00,925.00,VWS V14.00,2013-05-22 16:44:00,
2013-05-22 12:49:00,83.3,68.0,29.80,NNE,18,1.0,11.0,60,0.00,,---,0.00,963.00,VWS V14.00,2013-05-22 16:49:00,
2013-05-22 12:55:00,83.4,69.0,29.80,WSW,246,3.0,11.0,62,0.00,,---,0.00,1004.00,VWS V14.00,2013-05-22 16:55:00,
2013-05-22 13:00:00,83.3,68.0,29.79,South,178,0.0,11.0,60,0.00,,---,0.00,965.00,VWS V14.00,2013-05-22 17:00:00,
2013-05-22 13:05:00,83.5,68.7,29.79,West,271,0.0,8.0,61,0.00,,---,0.00,967.00,VWS V14.00,2013-05-22 17:05:00,
2013-05-22 13:10:00,83.6,69.2,29.79,SSE,164,1.0,8.0,62,0.00,,---,0.00,993.00,VWS V14.00,2013-05-22 17:10:00,
2013-05-22 13:15:00,83.9,69.5,29.78,WSW,239,2.0,9.0,62,0.00,,---,0.00,974.00,VWS V14.00,2013-05-22 17:15:00,
2013-05-22 13:20:00,84.2,68.8,29.78,SW,220,5.0,10.0,60,0.00,,---,0.00,946.00,VWS V14.00,2013-05-22 17:20:00,
2013-05-22 13:25:00,84.3,70.8,29.78,SSW,192,0.0,10.0,64,0.00,,---,0.00,1005.00,VWS V14.00,2013-05-22 17:25:00,
2013-05-22 13:30:00,84.6,70.6,29.78,ESE,103,4.0,10.0,63,0.00,,---,0.00,972.00,VWS V14.00,2013-05-22 17:30:00,
2013-05-22 13:35:00,84.6,67.7,29.78,East,100,2.0,12.0,57,0.00,,---,0.00,229.00,VWS V14.00,2013-05-22 17:35:00,
2013-05-22 13:40:00,84.2,69.3,29.78,ENE,76,1.0,12.0,61,0.00,,---,0.00,1074.00,VWS V14.00,2013-05-22 17:40:00,
2013-05-22 13:45:00,84.4,69.0,29.78,ESE,117,2.0,13.0,60,0.00,,---,0.00,1002.00,VWS V14.00,2013-05-22 17:45:00,
2013-05-22 13:50:00,84.5,68.6,29.77,South,171,0.0,13.0,59,0.00,,---,0.00,288.00,VWS V14.00,2013-05-22 17:50:00,
2013-05-22 13:55:00,84.6,70.2,29.78,East,96,0.0,13.0,62,0.00,,---,0.00,1097.00,VWS V14.00,2013-05-22 17:55:00,
2013-05-22 14:00:00,84.8,67.9,29.77,SSE,160,5.0,13.0,57,0.00,,---,0.00,1041.00,VWS V14.00,2013-05-22 18:00:00,
2013-05-22 14:05:00,85.0,69.1,29.77,SSE,157,6.0,11.0,59,0.00,,---,0.00,1035.00,VWS V14.00,2013-05-22 18:05:00,
2013-05-22 14:10:00,85.2,69.3,29.77,South,173,6.0,12.0,59,0.00,,---,0.00,974.00,VWS V14.00,2013-05-22 18:10:00,
2013-05-22 14:15:00,85.5,67.5,29.77,South,178,1.0,12.0,55,0.00,,---,0.00,933.00,VWS V14.00,2013-05-22 18:15:00,
2013-05-22 14:20:00,85.4,69.4,29.76,West,272,13.0,13.0,59,0.00,,---,0.00,933.00,VWS V14.00,2013-05-22 18:20:00,
2013-05-22 14:25:00,85.2,67.8,29.76,ENE,78,4.0,13.0,56,0.00,,---,0.00,925.00,VWS V14.00,2013-05-22 18:25:00,
2013-05-22 14:30:00,85.2,69.8,29.76,ESE,122,1.0,13.0,60,0.00,,---,0.00,930.00,VWS V14.00,2013-05-22 18:30:00,
2013-05-22 14:35:00,85.1,68.7,29.76,ESE,122,1.0,13.0,58,0.00,,---,0.00,967.00,VWS V14.00,2013-05-22 18:35:00,
2013-05-22 14:40:00,85.0,67.6,29.75,SSW,200,0.0,13.0,56,0.00,,---,0.00,255.00,VWS V14.00,2013-05-22 18:40:00,
2013-05-22 14:45:00,84.9,68.5,29.75,West,262,1.0,13.0,58,0.00,,---,0.00,958.00,VWS V14.00,2013-05-22 18:45:00,
2013-05-22 14:50:00,84.9,67.5,29.75,West,261,0.0,13.0,56,0.00,,---,0.00,276.00,VWS V14.00,2013-05-22 18:50:00,
2013-05-22 14:55:00,84.3,66.9,29.75,ESE,120,1.0,13.0,56,0.00,,---,0.00,188.00,VWS V14.00,2013-05-22 18:55:00,
2013-05-22 15:00:00,83.9,67.1,29.75,South,174,1.0,13.0,57,0.00,,---,0.00,271.00,VWS V14.00,2013-05-22 19:00:00,
2013-05-22 15:05:00,83.7,70.7,29.75,South,173,0.0,4.0,65,0.00,,---,0.00,958.00,VWS V14.00,2013-05-22 19:05:00,
2013-05-22 15:10:00,84.2,68.3,29.74,South,176,0.0,7.0,59,0.00,,---,0.00,267.00,VWS V14.00,2013-05-22 19:10:00,
2013-05-22 15:15:00,84.3,66.9,29.74,WSW,255,4.0,8.0,56,0.00,,---,0.00,988.00,VWS V14.00,2013-05-22 19:15:00,
2013-05-22 15:20:00,84.4,68.5,29.74,West,262,0.0,8.0,59,0.00,,---,0.00,802.00,VWS V14.00,2013-05-22 19:20:00,
2013-05-22 15:25:00,84.4,69.0,29.75,SW,215,2.0,8.0,60,0.00,,---,0.00,260.00,VWS V14.00,2013-05-22 19:25:00,
2013-05-22 15:30:00,84.1,69.7,29.74,SE,136,0.0,8.0,62,0.00,,---,0.00,83.00,VWS V14.00,2013-05-22 19:30:00,
2013-05-22 15:35:00,83.6,67.8,29.74,ESE,122,2.0,6.0,59,0.00,,---,0.00,56.00,VWS V14.00,2013-05-22 19:35:00,
2013-05-22 15:40:00,82.9,68.1,29.75,SSE,153,2.0,6.0,61,0.00,,---,0.00,46.00,VWS V14.00,2013-05-22 19:40:00,
2013-05-22 15:45:00,81.7,68.3,29.73,SSW,202,0.0,6.0,64,0.00,,---,0.00,25.00,VWS V14.00,2013-05-22 19:45:00,
2013-05-22 15:50:00,80.9,68.0,29.73,South,176,0.0,6.0,65,0.00,,---,0.00,18.00,VWS V14.00,2013-05-22 19:50:00,
2013-05-22 15:55:00,79.9,68.0,29.75,SSW,200,0.0,8.0,67,0.00,,---,0.00,11.00,VWS V14.00,2013-05-22 19:55:00,
2013-05-22 16:00:00,78.5,66.2,29.76,West,267,4.0,8.0,66,0.00,,---,0.00,11.00,VWS V14.00,2013-05-22 20:00:00,
2013-05-22 16:05:00,77.0,65.2,29.78,SW,215,8.0,10.0,67,0.00,,---,0.00,5.00,VWS V14.00,2013-05-22 20:05:00,
2013-05-22 16:10:00,74.9,65.7,29.80,West,267,4.0,20.0,73,0.79,,---,0.03,9.00,VWS V14.00,2013-05-22 20:10:00,
2013-05-22 16:15:00,71.9,66.1,29.79,SSW,208,4.0,20.0,82,0.97,,---,0.20,16.00,VWS V14.00,2013-05-22 20:15:00,
2013-05-22 16:20:00,70.1,65.1,29.79,South,169,0.0,20.0,84,0.15,,---,0.22,19.00,VWS V14.00,2013-05-22 20:20:00,
2013-05-22 16:25:00,69.0,64.0,29.80,SSE,148,2.0,20.0,84,0.07,,---,0.22,18.00,VWS V14.00,2013-05-22 20:25:00,
2013-05-22 16:30:00,68.3,64.0,29.79,WSW,240,0.0,20.0,86,0.04,,---,0.22,16.00,VWS V14.00,2013-05-22 20:30:00,
2013-05-22 16:35:00,67.8,63.8,29.79,East,95,0.0,5.0,87,0.00,,---,0.22,19.00,VWS V14.00,2013-05-22 20:35:00,
2013-05-22 16:40:00,67.5,63.8,29.78,South,170,2.0,5.0,88,0.00,,---,0.22,19.00,VWS V14.00,2013-05-22 20:40:00,
2013-05-22 16:46:00,67.1,63.8,29.79,SW,224,3.0,9.0,89,0.00,,---,0.22,25.00,VWS V14.00,2013-05-22 20:46:00,
2013-05-22 16:51:00,66.7,63.4,29.78,SSE,162,0.0,9.0,89,0.00,,---,0.22,28.00,VWS V14.00,2013-05-22 20:51:00,
2013-05-22 16:56:00,66.5,63.2,29.78,SSW,194,0.0,9.0,89,0.00,,---,0.22,32.00,VWS V14.00,2013-05-22 20:56:00,
2013-05-22 17:00:00,78.4,65.7,29.76,NNE,24,2.0,8.0,65,0.00,,---,0.00,11.00,VWS V14.00,2013-05-22 21:00:00,
2013-05-22 17:01:00,66.3,63.0,29.77,SE,137,0.0,9.0,89,0.00,,---,0.22,37.00,VWS V14.00,2013-05-22 21:01:00,
2013-05-22 17:06:00,66.2,63.2,29.76,SE,137,0.0,1.0,90,0.00,,---,0.22,49.00,VWS V14.00,2013-05-22 21:06:00,
2013-05-22 17:11:00,66.1,62.8,29.76,SE,124,0.0,1.0,89,0.00,,---,0.22,81.00,VWS V14.00,2013-05-22 21:11:00,
2013-05-22 17:16:00,66.2,63.2,29.75,SE,124,0.0,1.0,90,0.00,,---,0.22,171.00,VWS V14.00,2013-05-22 21:16:00,
2013-05-22 17:21:00,66.4,63.7,29.75,SE,124,0.0,1.0,91,0.00,,---,0.22,172.00,VWS V14.00,2013-05-22 21:21:00,
2013-05-22 17:26:00,66.6,63.6,29.75,SE,124,0.0,1.0,90,0.00,,---,0.22,158.00,VWS V14.00,2013-05-22 21:26:00,
2013-05-22 17:30:00,68.2,63.9,29.79,WSW,240,0.0,20.0,86,0.04,,---,0.22,16.00,VWS V14.00,2013-05-22 21:30:00,
2013-05-22 17:31:00,66.8,63.8,29.75,SSE,148,0.0,1.0,90,0.00,,---,0.22,220.00,VWS V14.00,2013-05-22 21:31:00,
2013-05-22 17:36:00,66.9,63.6,29.76,SW,217,0.0,2.0,89,0.00,,---,0.22,193.00,VWS V14.00,2013-05-22 21:36:00,
2013-05-22 17:41:00,67.1,63.8,29.75,SW,218,0.0,2.0,89,0.00,,---,0.22,167.00,VWS V14.00,2013-05-22 21:41:00,
2013-05-22 17:46:00,67.3,64.0,29.75,SW,218,1.0,2.0,89,0.00,,---,0.22,148.00,VWS V14.00,2013-05-22 21:46:00,
2013-05-22 17:51:00,67.2,63.8,29.75,SW,218,0.0,2.0,89,0.00,,---,0.22,107.00,VWS V14.00,2013-05-22 21:51:00,
2013-05-22 17:56:00,67.3,64.0,29.76,SW,218,2.0,2.0,89,0.00,,---,0.22,77.00,VWS V14.00,2013-05-22 21:56:00,
2013-05-22 18:00:00,66.3,63.0,29.77,SE,137,0.0,9.0,89,0.00,,---,0.22,37.00,VWS V14.00,2013-05-22 22:00:00,
2013-05-22 18:01:00,67.2,63.8,29.76,WSW,238,0.0,3.0,89,0.00,,---,0.22,70.00,VWS V14.00,2013-05-22 22:01:00,
2013-05-22 18:06:00,67.2,63.8,29.80,West,279,8.0,13.0,89,0.00,,---,0.22,14.00,VWS V14.00,2013-05-22 22:06:00,
2013-05-22 18:11:00,67.2,63.5,29.78,NW,325,4.0,13.0,88,0.00,,---,0.22,65.00,VWS V14.00,2013-05-22 22:11:00,
2013-05-22 18:16:00,67.6,63.6,29.78,WNW,292,2.0,13.0,87,0.00,,---,0.22,100.00,VWS V14.00,2013-05-22 22:16:00,
2013-05-22 18:21:00,67.8,64.1,29.79,South,178,0.0,13.0,88,0.00,,---,0.22,74.00,VWS V14.00,2013-05-22 22:21:00,
2013-05-22 18:26:00,68.0,63.7,29.78,SSE,160,0.0,13.0,86,0.00,,---,0.22,76.00,VWS V14.00,2013-05-22 22:26:00,
2013-05-22 18:30:00,66.8,63.8,29.75,SW,217,2.0,2.0,90,0.00,,---,0.22,220.00,VWS V14.00,2013-05-22 22:30:00,
2013-05-22 18:31:00,68.2,64.2,29.77,SSE,160,0.0,13.0,87,0.00,,---,0.22,39.00,VWS V14.00,2013-05-22 22:31:00,
2013-05-22 18:36:00,68.3,64.6,29.77,SSE,160,0.0,0.0,88,0.00,,---,0.22,11.00,VWS V14.00,2013-05-22 22:36:00,
2013-05-22 18:41:00,68.2,64.8,29.79,SSE,160,0.0,0.0,89,0.00,,---,0.22,0.00,VWS V14.00,2013-05-22 22:41:00,
2013-05-22 18:46:00,67.9,64.2,29.78,East,90,1.0,4.0,88,5.70,,---,0.36,9.00,VWS V14.00,2013-05-22 22:46:00,
2013-05-22 18:51:00,67.4,64.1,29.78,East,86,0.0,4.0,89,0.42,,---,0.40,18.00,VWS V14.00,2013-05-22 22:51:00,
2013-05-22 18:56:00,66.9,64.2,29.78,East,86,0.0,4.0,91,0.13,,---,0.41,19.00,VWS V14.00,2013-05-22 22:56:00,
2013-05-22 19:00:00,67.2,63.8,29.76,WSW,238,0.0,3.0,89,0.00,,---,0.22,70.00,VWS V14.00,2013-05-22 23:00:00,
2013-05-22 19:01:00,66.5,64.1,29.78,East,86,0.0,4.0,92,0.09,,---,0.41,25.00,VWS V14.00,2013-05-22 23:01:00,
2013-05-22 19:06:00,66.2,63.8,29.78,East,87,0.0,1.0,92,0.05,,---,0.41,39.00,VWS V14.00,2013-05-22 23:06:00,
2013-05-22 19:11:00,66.1,64.3,29.78,East,87,0.0,1.0,94,0.00,,---,0.41,37.00,VWS V14.00,2013-05-22 23:11:00,
2013-05-22 19:16:00,66.1,64.3,29.77,East,87,0.0,1.0,94,0.00,,---,0.41,32.00,VWS V14.00,2013-05-22 23:16:00,
2013-05-22 19:21:00,65.9,64.1,29.78,SE,145,0.0,1.0,94,0.00,,---,0.41,30.00,VWS V14.00,2013-05-22 23:21:00,
2013-05-22 19:26:00,65.8,64.3,29.79,SE,145,0.0,1.0,95,0.00,,---,0.41,30.00,VWS V14.00,2013-05-22 23:26:00,
2013-05-22 19:30:00,68.2,64.2,29.77,SSE,160,0.0,13.0,87,0.00,,---,0.22,39.00,VWS V14.00,2013-05-22 23:30:00,
2013-05-22 19:31:00,65.7,64.2,29.79,SE,145,0.0,0.0,95,0.00,,---,0.41,33.00,VWS V14.00,2013-05-22 23:31:00,
2013-05-22 19:36:00,65.6,64.1,29.79,SSE,153,0.0,2.0,95,0.00,,---,0.41,37.00,VWS V14.00,2013-05-22 23:36:00,
2013-05-22 19:41:00,65.6,64.1,29.79,SSE,153,0.0,2.0,95,0.00,,---,0.41,35.00,VWS V14.00,2013-05-22 23:41:00,
2013-05-22 19:46:00,65.6,64.4,29.79,SSE,156,1.0,2.0,96,0.00,,---,0.41,30.00,VWS V14.00,2013-05-22 23:46:00,
2013-05-22 19:51:00,65.6,64.4,29.79,SE,134,0.0,2.0,96,0.00,,---,0.41,26.00,VWS V14.00,2013-05-22 23:51:00,
2013-05-22 19:56:00,65.6,64.4,29.79,SE,139,0.0,2.0,96,0.00,,---,0.41,21.00,VWS V14.00,2013-05-22 23:56:00,
2013-05-22 20:00:00,66.5,64.1,29.78,East,86,0.0,4.0,92,0.08,,---,0.41,25.00,VWS V14.00,2013-05-23 00:00:00,
2013-05-22 20:01:00,65.5,64.3,29.79,South,186,0.0,0.0,96,0.00,,---,0.41,18.00,VWS V14.00,2013-05-23 00:01:00,
2013-05-22 20:06:00,65.5,64.3,29.79,South,186,0.0,0.0,96,0.00,,---,0.41,12.00,VWS V14.00,2013-05-23 00:06:00,
2013-05-22 20:11:00,65.4,63.9,29.78,SSE,167,0.0,1.0,95,0.00,,---,0.41,11.00,VWS V14.00,2013-05-23 00:11:00,
2013-05-22 20:16:00,65.4,63.9,29.78,SSE,166,0.0,1.0,95,0.00,,---,0.41,9.00,VWS V14.00,2013-05-23 00:16:00,
2013-05-22 20:21:00,65.4,63.9,29.77,SSE,166,0.0,1.0,95,0.00,,---,0.41,9.00,VWS V14.00,2013-05-23 00:21:00,
2013-05-22 20:26:00,65.4,63.9,29.77,SSE,157,0.0,1.0,95,0.00,,---,0.41,18.00,VWS V14.00,2013-05-23 00:26:00,
2013-05-22 20:30:00,65.7,64.2,29.79,SE,145,0.0,1.0,95,0.00,,---,0.41,33.00,VWS V14.00,2013-05-23 00:30:00,
2013-05-22 20:31:00,65.4,63.9,29.77,SSE,157,0.0,0.0,95,0.00,,---,0.41,7.00,VWS V14.00,2013-05-23 00:31:00,
2013-05-22 20:36:00,65.5,63.7,29.77,SSE,157,0.0,1.0,94,0.00,,---,0.41,0.00,VWS V14.00,2013-05-23 00:36:00,
2013-05-22 20:41:00,65.5,63.7,29.77,SSW,194,1.0,2.0,94,0.00,,---,0.41,0.00,VWS V14.00,2013-05-23 00:41:00,
2013-05-22 20:46:00,65.6,63.5,29.76,SSW,196,0.0,3.0,93,0.00,,---,0.41,0.00,VWS V14.00,2013-05-23 00:46:00,
2013-05-22 20:51:00,65.7,63.6,29.76,SSW,196,0.0,3.0,93,0.00,,---,0.41,0.00,VWS V14.00,2013-05-23 00:51:00,
2013-05-22 20:56:00,65.7,63.6,29.76,SE,141,1.0,4.0,93,0.00,,---,0.41,0.00,VWS V14.00,2013-05-23 00:56:00,
2013-05-22 21:00:00,65.5,64.3,29.79,South,186,0.0,3.0,96,0.00,,---,0.41,18.00,VWS V14.00,2013-05-23 01:00:00,
2013-05-22 21:01:00,65.6,63.2,29.76,SE,142,0.0,0.0,92,0.00,,---,0.41,0.00,VWS V14.00,2013-05-23 01:01:00,
2013-05-22 21:06:00,65.5,63.1,29.77,West,278,2.0,2.0,92,0.00,,---,0.41,0.00,VWS V14.00,2013-05-23 01:06:00,
2013-05-22 21:11:00,65.4,63.0,29.76,SW,223,0.0,4.0,92,0.00,,---,0.41,0.00,VWS V14.00,2013-05-23 01:11:00,
2013-05-22 21:16:00,65.4,63.0,29.77,SW,223,0.0,4.0,92,0.00,,---,0.41,0.00,VWS V14.00,2013-05-23 01:16:00,
2013-05-22 21:21:00,65.3,62.9,29.77,SW,223,0.0,4.0,92,0.00,,---,0.41,0.00,VWS V14.00,2013-05-23 01:21:00,
2013-05-22 21:26:00,65.2,62.8,29.77,SW,223,0.0,4.0,92,0.00,,---,0.41,0.00,VWS V14.00,2013-05-23 01:26:00,
2013-05-22 21:30:00,65.4,63.9,29.77,SSE,157,0.0,1.0,95,0.00,,---,0.41,7.00,VWS V14.00,2013-05-23 01:30:00,
2013-05-22 21:32:00,65.2,63.1,29.76,SW,223,0.0,0.0,93,0.00,,---,0.41,0.00,VWS V14.00,2013-05-23 01:32:00,
2013-05-22 21:37:00,65.1,63.0,29.76,SW,223,0.0,0.0,93,0.00,,---,0.41,0.00,VWS V14.00,2013-05-23 01:37:00,
2013-05-22 21:42:00,65.0,62.9,29.77,SW,223,0.0,0.0,93,0.00,,---,0.41,0.00,VWS V14.00,2013-05-23 01:42:00,
2013-05-22 21:47:00,64.9,62.8,29.77,SW,223,0.0,0.0,93,0.00,,---,0.41,0.00,VWS V14.00,2013-05-23 01:47:00,
2013-05-22 21:52:00,64.7,62.6,29.77,SW,223,0.0,0.0,93,0.00,,---,0.41,0.00,VWS V14.00,2013-05-23 01:52:00,
2013-05-22 21:57:00,64.6,62.5,29.78,SW,223,0.0,0.0,93,0.00,,---,0.41,0.00,VWS V14.00,2013-05-23 01:57:00,
2013-05-22 22:00:00,65.6,63.2,29.76,SE,142,0.0,4.0,92,0.00,,---,0.41,0.00,VWS V14.00,2013-05-23 02:00:00,
2013-05-22 22:02:00,64.5,62.4,29.77,SW,223,0.0,0.0,93,0.00,,---,0.41,0.00,VWS V14.00,2013-05-23 02:02:00,
2013-05-22 22:07:00,64.3,62.2,29.78,SW,223,0.0,1.0,93,0.00,,---,0.41,0.00,VWS V14.00,2013-05-23 02:07:00,
2013-05-22 22:12:00,64.2,62.4,29.78,SW,223,0.0,2.0,94,0.00,,---,0.41,0.00,VWS V14.00,2013-05-23 02:12:00,
2013-05-22 22:17:00,64.1,62.3,29.79,SW,223,0.0,2.0,94,0.00,,---,0.41,0.00,VWS V14.00,2013-05-23 02:17:00,
2013-05-22 22:22:00,64.0,62.2,29.79,SW,223,0.0,2.0,94,0.00,,---,0.41,0.00,VWS V14.00,2013-05-23 02:22:00,
2013-05-22 22:27:00,63.8,62.0,29.79,SW,223,0.0,2.0,94,0.00,,---,0.41,0.00,VWS V14.00,2013-05-23 02:27:00,
2013-05-22 22:30:00,65.2,63.1,29.76,SW,223,0.0,4.0,93,0.00,,---,0.41,0.00,VWS V14.00,2013-05-23 02:30:00,
2013-05-22 22:32:00,63.8,62.0,29.79,SW,223,0.0,0.0,94,0.00,,---,0.41,0.00,VWS V14.00,2013-05-23 02:32:00,
2013-05-22 22:37:00,63.8,62.0,29.79,SW,234,0.0,3.0,94,0.00,,---,0.41,0.00,VWS V14.00,2013-05-23 02:37:00,
2013-05-22 22:42:00,63.9,62.1,29.78,SW,227,0.0,3.0,94,0.00,,---,0.41,0.00,VWS V14.00,2013-05-23 02:42:00,
2013-05-22 22:47:00,64.1,62.3,29.78,SSE,161,0.0,4.0,94,0.00,,---,0.41,0.00,VWS V14.00,2013-05-23 02:47:00,
2013-05-22 22:52:00,64.5,62.4,29.78,SW,215,4.0,6.0,93,0.00,,---,0.41,0.00,VWS V14.00,2013-05-23 02:52:00,
2013-05-22 22:57:00,65.1,62.4,29.78,WSW,257,5.0,9.0,91,0.00,,---,0.41,0.00,VWS V14.00,2013-05-23 02:57:00,
2013-05-22 23:00:00,64.5,62.4,29.77,SW,223,0.0,0.0,93,0.00,,---,0.41,0.00,VWS V14.00,2013-05-23 03:00:00,
2013-05-22 23:02:00,65.6,62.6,29.78,SSW,209,1.0,11.0,90,0.00,,---,0.41,0.00,VWS V14.00,2013-05-23 03:02:00,
2013-05-22 23:07:00,65.8,62.8,29.79,SSW,202,0.0,11.0,90,0.00,,---,0.41,0.00,VWS V14.00,2013-05-23 03:07:00,
2013-05-22 23:12:00,65.9,62.6,29.79,West,274,1.0,11.0,89,0.00,,---,0.41,0.00,VWS V14.00,2013-05-23 03:12:00,
2013-05-22 23:17:00,66.0,62.3,29.78,SSW,209,0.0,11.0,88,0.00,,---,0.41,0.00,VWS V14.00,2013-05-23 03:17:00,
2013-05-22 23:22:00,66.1,62.5,29.77,South,169,2.0,15.0,88,0.00,,---,0.41,0.00,VWS V14.00,2013-05-23 03:22:00,
2013-05-22 23:27:00,66.1,62.5,29.77,WSW,250,2.0,15.0,88,0.00,,---,0.41,0.00,VWS V14.00,2013-05-23 03:27:00,
2013-05-22 23:30:00,63.8,62.0,29.79,SW,223,0.0,2.0,94,0.00,,---,0.41,0.00,VWS V14.00,2013-05-23 03:30:00,
2013-05-22 23:32:00,66.0,62.3,29.77,WSW,249,0.0,1.0,88,0.00,,---,0.41,0.00,VWS V14.00,2013-05-23 03:32:00,
2013-05-22 23:37:00,66.0,62.7,29.77,West,269,3.0,5.0,89,0.00,,---,0.42,0.00,VWS V14.00,2013-05-23 03:37:00,
2013-05-22 23:42:00,65.7,62.7,29.76,West,272,0.0,5.0,90,0.00,,---,0.42,0.00,VWS V14.00,2013-05-23 03:42:00,
2013-05-22 23:47:00,65.4,62.4,29.76,West,271,0.0,5.0,90,0.00,,---,0.42,0.00,VWS V14.00,2013-05-23 03:47:00,
2013-05-22 23:52:00,65.2,62.2,29.76,West,271,2.0,5.0,90,0.00,,---,0.42,0.00,VWS V14.00,2013-05-23 03:52:00,
2013-05-22 23:57:00,65.0,62.3,29.76,SSW,195,0.0,5.0,91,0.00,,---,0.42,0.00,VWS V14.00,2013-05-23 03:57:00,